createdAt,value
2022-10-17T00:00:53.082Z,18.67
2022-10-17T00:03:23.319Z,21.50
2022-10-17T00:05:53.577Z,22.15
2022-10-17T00:08:24.267Z,19.80
2022-10-17T00:10:59.960Z,19.77
2022-10-17T00:13:30.825Z,17.00
2022-10-17T00:16:01.805Z,18.55
2022-10-17T00:18:32.803Z,24.42
2022-10-17T00:21:03.147Z,21.60
2022-10-17T00:23:34.123Z,26.02
2022-10-17T00:26:06.614Z,21.92
2022-10-17T00:28:37.017Z,22.60
2022-10-17T00:31:07.803Z,26.10
2022-10-17T00:33:39.395Z,20.80
2022-10-17T00:36:14.752Z,21.48
2022-10-17T00:38:46.970Z,23.30
2022-10-17T00:41:21.952Z,19.73
2022-10-17T00:44:04.775Z,22.88
2022-10-17T00:46:36.944Z,19.48
2022-10-17T00:49:10.293Z,21.63
2022-10-17T00:51:46.138Z,21.13
2022-10-17T00:54:19.521Z,21.30
2022-10-17T00:56:50.573Z,22.42
2022-10-17T00:59:23.398Z,22.67
2022-10-17T01:02:07.975Z,22.67
2022-10-17T01:04:40.881Z,21.38
2022-10-17T01:07:11.363Z,89.15
2022-10-17T01:09:44.434Z,56.58
2022-10-17T01:12:20.646Z,37.58
2022-10-17T01:15:18.130Z,26.92
2022-10-17T01:18:15.923Z,30.95
2022-10-17T01:21:16.967Z,34.38
2022-10-17T01:24:14.971Z,21.52
2022-10-17T01:26:51.446Z,25.05
2022-10-17T01:29:57.818Z,21.33
2022-10-17T01:32:44.042Z,23.67
2022-10-17T01:35:32.868Z,34.47
2022-10-17T01:38:23.678Z,36.67
2022-10-17T01:41:15.904Z,31.35
2022-10-17T01:44:21.099Z,33.58
2022-10-17T01:46:58.714Z,25.52
2022-10-17T01:49:31.943Z,37.00
2022-10-17T01:52:19.817Z,94.95
2022-10-17T01:54:55.277Z,119.10
2022-10-17T01:57:46.657Z,76.50
2022-10-17T02:00:24.096Z,51.83
2022-10-17T02:03:08.517Z,45.65
2022-10-17T02:05:40.435Z,37.72
2022-10-17T02:08:11.016Z,37.17
2022-10-17T02:11:01.904Z,45.05
2022-10-17T02:13:56.762Z,52.80
2022-10-17T02:16:35.838Z,41.05
2022-10-17T02:19:44.022Z,36.63
2022-10-17T02:22:32.107Z,30.77
2022-10-17T02:25:13.147Z,24.48
2022-10-17T02:28:01.889Z,25.85
2022-10-17T02:30:44.249Z,27.05
2022-10-17T02:33:38.075Z,22.75
2022-10-17T02:36:14.292Z,21.73
2022-10-17T02:38:45.768Z,22.20
2022-10-17T02:41:18.313Z,19.35
2022-10-17T02:43:50.206Z,20.33
2022-10-17T02:46:23.811Z,23.67
2022-10-17T02:49:10.831Z,31.65
2022-10-17T02:51:59.267Z,25.00
2022-10-17T02:54:36.046Z,22.73
2022-10-17T02:59:42.064Z,21.40
2022-10-17T03:02:12.265Z,21.02
2022-10-17T03:04:47.323Z,20.27
2022-10-17T03:07:17.414Z,15.90
2022-10-17T03:09:47.555Z,17.50
2022-10-17T03:12:18.086Z,19.38
2022-10-17T03:14:48.223Z,19.77
2022-10-17T03:17:18.352Z,24.90
2022-10-17T03:19:48.435Z,24.80
2022-10-17T03:22:18.724Z,21.98
2022-10-17T03:24:48.817Z,16.98
2022-10-17T03:27:19.041Z,20.08
2022-10-17T03:29:49.307Z,15.90
2022-10-17T03:32:19.584Z,17.30
2022-10-17T03:34:49.809Z,15.27
2022-10-17T03:37:19.937Z,16.83
2022-10-17T03:39:50.045Z,14.80
2022-10-17T03:42:20.151Z,13.90
2022-10-17T03:44:50.239Z,13.30
2022-10-17T03:47:20.495Z,13.70
2022-10-17T03:49:50.641Z,13.07
2022-10-17T03:52:20.809Z,15.50
2022-10-17T03:54:51.402Z,13.85
2022-10-17T03:57:21.536Z,12.27
2022-10-17T03:59:52.584Z,17.95
2022-10-17T04:02:25.025Z,17.50
2022-10-17T04:04:55.142Z,17.77
2022-10-17T04:09:56.794Z,32.85
2022-10-17T04:12:27.064Z,22.83
2022-10-17T04:15:00.437Z,32.65
2022-10-17T04:17:35.872Z,55.72
2022-10-17T04:20:08.843Z,48.90
2022-10-17T04:22:39.136Z,31.42
2022-10-17T04:25:09.674Z,43.90
2022-10-17T04:27:39.840Z,44.78
2022-10-17T04:30:10.573Z,32.85
2022-10-17T04:32:40.766Z,24.70
2022-10-17T04:35:10.983Z,19.95
2022-10-17T04:37:41.084Z,29.00
2022-10-17T04:40:11.623Z,27.65
2022-10-17T04:42:41.737Z,44.97
2022-10-17T04:45:11.875Z,52.88
2022-10-17T04:47:42.023Z,51.50
2022-10-17T04:50:12.172Z,35.42
2022-10-17T04:52:42.433Z,26.48
2022-10-17T04:55:12.602Z,23.05
2022-10-17T04:57:42.773Z,21.15
2022-10-17T05:00:13.382Z,17.92
2022-10-17T05:02:43.636Z,18.10
2022-10-17T05:05:13.889Z,14.57
2022-10-17T05:07:44.002Z,24.88
2022-10-17T05:10:14.140Z,34.60
2022-10-17T05:12:44.268Z,27.33
2022-10-17T05:15:14.977Z,33.10
2022-10-17T05:17:45.084Z,32.53
2022-10-17T05:20:15.349Z,38.05
2022-10-17T05:22:45.575Z,33.80
2022-10-17T05:25:15.857Z,31.50
2022-10-17T05:27:46.218Z,30.80
2022-10-17T05:30:16.429Z,22.92
2022-10-17T05:32:46.566Z,16.90
2022-10-17T05:35:18.227Z,21.48
2022-10-17T05:37:48.829Z,34.03
2022-10-17T05:40:18.999Z,30.27
2022-10-17T05:42:49.507Z,23.23
2022-10-17T05:45:19.939Z,23.80
2022-10-17T05:47:50.051Z,25.10
2022-10-17T05:50:22.231Z,24.80
2022-10-17T05:52:55.652Z,22.58
2022-10-17T05:55:26.044Z,27.10
2022-10-17T05:57:56.442Z,35.03
2022-10-17T06:00:26.630Z,32.75
2022-10-17T06:02:57.195Z,27.80
2022-10-17T06:05:27.508Z,25.98
2022-10-17T06:07:59.624Z,46.08
2022-10-17T06:10:32.083Z,33.90
2022-10-17T06:13:02.257Z,30.77
2022-10-17T06:15:32.397Z,35.85
2022-10-17T06:18:02.505Z,37.22
2022-10-17T06:20:32.694Z,38.50
2022-10-17T06:23:02.913Z,35.10
2022-10-17T06:25:33.549Z,28.50
2022-10-17T06:28:04.116Z,23.85
2022-10-17T06:30:43.206Z,22.27
2022-10-17T06:33:13.359Z,29.88
2022-10-17T06:35:43.752Z,19.92
2022-10-17T06:38:13.913Z,14.68
2022-10-17T06:40:43.993Z,15.15
2022-10-17T06:43:14.229Z,12.70
2022-10-17T06:45:47.670Z,12.65
2022-10-17T06:48:17.834Z,14.98
2022-10-17T06:50:47.955Z,12.88
2022-10-17T06:53:18.148Z,13.80
2022-10-17T06:55:54.174Z,15.60
2022-10-17T06:58:24.297Z,11.02
2022-10-17T07:01:02.844Z,13.93
2022-10-17T07:03:33.640Z,17.15
2022-10-17T07:06:04.731Z,13.00
2022-10-17T07:08:34.901Z,13.38
2022-10-17T07:11:17.524Z,12.30
2022-10-17T07:13:48.351Z,12.95
2022-10-17T07:16:18.584Z,13.38
2022-10-17T07:18:52.791Z,10.02
2022-10-17T07:21:22.956Z,13.55
2022-10-17T07:23:53.023Z,12.25
2022-10-17T07:26:23.180Z,10.95
2022-10-17T07:28:55.370Z,15.55
2022-10-17T07:31:25.551Z,13.93
2022-10-17T07:33:55.642Z,11.60
2022-10-17T07:36:25.844Z,11.82
2022-10-17T07:38:56.245Z,13.18
2022-10-17T07:41:26.506Z,11.13
2022-10-17T07:43:56.541Z,11.70
2022-10-17T07:46:26.967Z,11.68
2022-10-17T07:48:57.519Z,13.32
2022-10-17T07:51:28.129Z,12.02
2022-10-17T07:53:58.245Z,13.25
2022-10-17T07:56:29.796Z,11.45
2022-10-17T07:59:01.725Z,13.02
2022-10-17T08:01:34.269Z,10.40
2022-10-17T08:04:04.303Z,14.38
2022-10-17T08:06:34.519Z,11.63
2022-10-17T08:09:04.835Z,10.05
2022-10-17T08:11:36.679Z,12.27
2022-10-17T08:14:07.217Z,11.73
2022-10-17T08:16:37.459Z,10.23
2022-10-17T08:24:15.375Z,8.63
2022-10-17T08:26:48.269Z,8.43
2022-10-17T08:29:19.919Z,9.93
2022-10-17T08:31:54.077Z,11.70
2022-10-17T08:34:28.906Z,9.48
2022-10-17T08:36:59.272Z,10.30
2022-10-17T08:39:29.589Z,8.18
2022-10-17T08:42:02.367Z,8.45
2022-10-17T08:44:57.722Z,8.23
2022-10-17T08:47:40.993Z,13.85
2022-10-17T08:50:53.209Z,7.90
2022-10-17T08:53:33.177Z,7.40
2022-10-17T08:56:44.542Z,8.80
2022-10-17T08:59:21.842Z,10.45
2022-10-17T09:02:14.924Z,10.13
2022-10-17T09:05:03.540Z,14.05
2022-10-17T09:07:50.274Z,13.23
2022-10-17T09:11:09.860Z,8.48
2022-10-17T09:14:04.938Z,10.27
2022-10-17T09:16:55.930Z,1275.38
2022-10-17T09:19:34.598Z,201.20
2022-10-17T09:22:18.973Z,1999.90
2022-10-17T09:24:55.667Z,1991.28
2022-10-17T09:27:46.920Z,1999.90
2022-10-17T09:30:46.475Z,1508.20
2022-10-17T09:33:35.904Z,161.55
2022-10-17T09:36:22.510Z,209.60
2022-10-17T09:39:02.844Z,47.33
2022-10-17T09:41:46.542Z,19.10
2022-10-17T09:44:23.766Z,13.70
2022-10-17T09:47:06.098Z,12.95
2022-10-17T09:49:41.417Z,10.77
2022-10-17T09:52:17.071Z,9.27
2022-10-17T09:54:57.771Z,7.63
2022-10-17T09:57:30.488Z,6.15
2022-10-17T10:00:05.140Z,6.13
2022-10-17T10:02:40.930Z,5.05
2022-10-17T10:05:20.257Z,8.93
2022-10-17T10:08:04.096Z,11.82
2022-10-17T10:10:34.467Z,10.43
2022-10-17T10:13:13.456Z,6.40
2022-10-17T10:15:49.819Z,7.13
2022-10-17T10:21:10.143Z,9.60
2022-10-17T10:23:45.934Z,7.30
2022-10-17T10:26:32.354Z,7.72
2022-10-17T10:29:06.769Z,6.60
2022-10-17T10:31:40.748Z,5.97
2022-10-17T10:34:24.826Z,8.75
2022-10-17T10:37:05.640Z,7.90
2022-10-17T10:39:50.079Z,5.93
2022-10-17T10:42:20.115Z,6.88
2022-10-17T10:44:51.996Z,7.90
2022-10-17T10:47:26.757Z,9.38
2022-10-17T10:50:26.434Z,9.10
2022-10-17T10:53:42.082Z,5.63
2022-10-17T10:56:26.790Z,6.60
2022-10-17T10:59:09.032Z,7.85
2022-10-17T11:01:41.982Z,6.82
2022-10-17T11:04:24.331Z,9.90
2022-10-17T11:07:03.548Z,6.05
2022-10-17T11:10:09.375Z,6.00
2022-10-17T11:12:48.577Z,6.95
2022-10-17T11:15:25.877Z,7.70
2022-10-17T11:18:37.690Z,6.03
2022-10-17T11:21:20.065Z,6.80
2022-10-17T11:24:06.800Z,5.68
2022-10-17T11:26:45.514Z,8.50
2022-10-17T11:29:15.750Z,6.63
2022-10-17T11:31:53.100Z,11.93
2022-10-17T11:34:27.277Z,5.88
2022-10-17T11:37:02.458Z,13.55
2022-10-17T11:39:48.820Z,4.80
2022-10-17T11:42:33.181Z,4.72
2022-10-17T11:45:10.833Z,6.05
2022-10-17T11:47:51.743Z,8.23
2022-10-17T11:53:22.206Z,5.88
2022-10-17T11:55:54.703Z,6.22
2022-10-17T11:58:46.616Z,4.88
2022-10-17T12:01:30.792Z,6.57
2022-10-17T12:04:54.902Z,5.30
2022-10-17T12:07:37.265Z,4.45
2022-10-17T12:10:37.463Z,4.47
2022-10-17T12:13:33.931Z,3.60
2022-10-17T12:16:22.022Z,5.60
2022-10-17T12:19:01.222Z,5.15
2022-10-17T12:22:09.905Z,6.47
2022-10-17T12:24:43.118Z,6.00
2022-10-17T12:27:35.975Z,5.65
2022-10-17T12:30:12.119Z,4.18
2022-10-17T12:33:07.757Z,5.47
2022-10-17T12:35:39.394Z,5.30
2022-10-17T12:38:18.688Z,16.33
2022-10-17T12:40:55.485Z,16.15
2022-10-17T12:43:28.529Z,295.35
2022-10-17T12:46:03.450Z,97.03
2022-10-17T12:48:33.537Z,9.63
2022-10-17T12:54:16.577Z,33.10
2022-10-17T12:56:49.558Z,11.40
2022-10-17T12:59:29.293Z,8.65
2022-10-17T13:02:03.692Z,8.68
2022-10-17T13:04:37.285Z,5.10
2022-10-17T13:07:21.350Z,4.60
2022-10-17T13:09:51.846Z,8.80
2022-10-17T13:12:27.623Z,16.35
2022-10-17T13:14:58.522Z,64.18
2022-10-17T13:17:31.089Z,8.48
2022-10-17T13:20:01.938Z,9.70
2022-10-17T13:22:33.552Z,6.68
2022-10-17T13:25:10.393Z,13.25
2022-10-17T13:27:40.610Z,10.80
2022-10-17T13:30:31.899Z,14.55
2022-10-17T13:33:04.351Z,12.95
2022-10-17T13:38:32.715Z,9.55
2022-10-17T13:41:30.062Z,5.93
2022-10-17T13:43:54.974Z,6.00
2022-10-17T13:46:40.883Z,5.80
2022-10-17T13:49:37.247Z,7.05
2022-10-17T13:52:16.994Z,105.18
2022-10-17T13:54:51.812Z,11.88
2022-10-17T13:57:28.118Z,8.02
2022-10-17T14:00:10.097Z,8.85
2022-10-17T14:02:42.148Z,9.25
2022-10-17T14:05:18.145Z,11.60
2022-10-17T14:08:20.468Z,11.88
2022-10-17T14:10:50.816Z,12.55
2022-10-17T14:13:30.490Z,11.25
2022-10-17T14:16:03.158Z,8.65
2022-10-17T14:18:36.633Z,10.20
2022-10-17T14:24:28.242Z,9.15
2022-10-17T14:27:00.653Z,7.82
2022-10-17T14:29:51.973Z,8.32
2022-10-17T14:32:22.836Z,7.32
2022-10-17T14:35:05.556Z,9.68
2022-10-17T14:37:45.575Z,11.10
2022-10-17T14:40:24.905Z,9.35
2022-10-17T14:42:58.209Z,10.95
2022-10-17T14:45:37.037Z,14.35
2022-10-17T14:48:13.291Z,10.68
2022-10-17T14:53:34.282Z,10.73
2022-10-17T14:56:22.012Z,10.48
2022-10-17T14:58:52.645Z,13.25
2022-10-17T15:01:22.892Z,11.85
2022-10-17T15:03:53.145Z,20.50
2022-10-17T15:06:29.535Z,11.93
2022-10-17T15:09:00.272Z,11.15
2022-10-17T15:11:30.488Z,10.60
2022-10-17T15:14:00.633Z,12.63
2022-10-17T15:16:32.420Z,14.48
2022-10-17T15:19:02.734Z,14.65
2022-10-17T15:21:40.476Z,12.45
2022-10-17T15:24:14.329Z,14.15
2022-10-17T15:26:44.560Z,12.68
2022-10-17T15:29:16.189Z,16.23
2022-10-17T15:31:46.423Z,14.55
2022-10-17T15:34:16.925Z,13.27
2022-10-17T15:36:51.740Z,14.38
2022-10-17T15:39:21.865Z,14.68
2022-10-17T15:41:52.067Z,15.20
2022-10-17T15:44:22.252Z,16.83
2022-10-17T15:46:52.482Z,14.52
2022-10-17T15:49:23.085Z,16.90
2022-10-17T15:51:55.406Z,18.15
2022-10-17T15:54:27.286Z,14.70
2022-10-17T15:56:58.160Z,18.80
2022-10-17T15:59:33.783Z,18.27
2022-10-17T16:02:03.991Z,18.00
2022-10-17T16:04:34.157Z,17.08
2022-10-17T16:07:04.271Z,20.08
2022-10-17T16:09:35.152Z,16.38
2022-10-17T16:12:07.209Z,23.48
2022-10-17T16:14:37.418Z,19.67
2022-10-17T16:17:13.641Z,20.98
2022-10-17T16:19:44.405Z,19.83
2022-10-17T16:22:24.914Z,22.23
2022-10-17T16:24:58.934Z,21.48
2022-10-17T16:27:29.380Z,23.48
2022-10-17T16:29:59.515Z,27.38
2022-10-17T16:32:29.951Z,25.08
2022-10-17T16:35:00.238Z,23.67
2022-10-17T16:37:30.524Z,25.40
2022-10-17T16:40:00.791Z,29.83
2022-10-17T16:42:31.137Z,28.10
2022-10-17T16:45:01.788Z,22.98
2022-10-17T16:47:31.958Z,23.77
2022-10-17T16:50:02.027Z,22.92
2022-10-17T16:52:32.323Z,21.88
2022-10-17T16:55:02.831Z,24.55
2022-10-17T16:57:33.121Z,21.52
2022-10-17T17:00:05.162Z,23.83
2022-10-17T17:02:35.515Z,24.25
2022-10-17T17:05:06.317Z,26.92
2022-10-17T17:07:36.462Z,22.38
2022-10-17T17:10:07.046Z,22.88
2022-10-17T17:12:37.373Z,24.48
2022-10-17T17:15:07.852Z,27.85
2022-10-17T17:17:49.538Z,26.13
2022-10-17T17:20:21.510Z,24.98
2022-10-17T17:22:52.527Z,23.92
2022-10-17T17:25:23.089Z,27.63
2022-10-17T17:27:53.240Z,23.13
2022-10-17T17:30:23.410Z,23.05
2022-10-17T17:32:53.545Z,25.70
2022-10-17T17:35:23.698Z,22.90
2022-10-17T17:37:53.895Z,23.23
2022-10-17T17:40:24.111Z,21.15
2022-10-17T17:42:54.343Z,23.80
2022-10-17T17:45:24.527Z,23.48
2022-10-17T17:47:55.483Z,25.17
2022-10-17T17:50:25.623Z,24.38
2022-10-17T17:52:55.765Z,22.63
2022-10-17T17:55:26.042Z,25.15
2022-10-17T17:57:56.767Z,22.40
2022-10-17T18:00:27.960Z,23.63
2022-10-17T18:02:58.139Z,21.90
2022-10-17T18:05:35.041Z,24.48
2022-10-17T18:08:17.397Z,26.05
2022-10-17T18:10:49.619Z,23.63
2022-10-17T18:13:19.703Z,21.73
2022-10-17T18:15:52.014Z,26.20
2022-10-17T18:18:22.097Z,24.88
2022-10-17T18:20:52.703Z,23.58
2022-10-17T18:23:23.353Z,25.40
2022-10-17T18:25:55.423Z,25.30
2022-10-17T18:28:25.676Z,24.83
2022-10-17T18:30:58.263Z,23.40
2022-10-17T18:33:28.395Z,24.55
2022-10-17T18:36:06.688Z,26.00
2022-10-17T18:38:37.896Z,27.38
2022-10-17T18:41:20.287Z,24.30
2022-10-17T18:43:51.823Z,24.70
2022-10-17T18:46:30.835Z,29.23
2022-10-17T18:49:01.487Z,27.00
2022-10-17T18:51:31.650Z,25.83
2022-10-17T18:54:03.274Z,29.10
2022-10-17T18:56:33.514Z,28.25
2022-10-17T18:59:04.090Z,30.15
2022-10-17T19:01:34.924Z,25.85
2022-10-17T19:04:05.123Z,25.88
2022-10-17T19:06:35.854Z,24.38
2022-10-17T19:09:08.384Z,26.50
2022-10-17T19:11:39.316Z,25.83
2022-10-17T19:14:14.141Z,23.35
2022-10-17T19:16:47.115Z,26.98
2022-10-17T19:19:22.527Z,26.13
2022-10-17T19:21:53.153Z,27.23
2022-10-17T19:24:26.598Z,22.50
2022-10-17T19:26:59.484Z,26.48
2022-10-17T19:29:33.617Z,23.90
2022-10-17T19:32:03.861Z,27.55
2022-10-17T19:34:35.142Z,31.52
2022-10-17T19:37:05.436Z,26.70
2022-10-17T19:39:35.557Z,26.25
2022-10-17T19:42:07.039Z,26.25
2022-10-17T19:44:37.643Z,27.08
2022-10-17T19:47:07.816Z,26.35
2022-10-17T19:49:39.192Z,26.50
2022-10-17T19:52:09.347Z,23.70
2022-10-17T19:54:40.874Z,25.15
2022-10-17T19:57:11.081Z,27.70
2022-10-17T19:59:41.246Z,25.08
2022-10-17T20:02:13.268Z,29.55
2022-10-17T20:04:54.347Z,28.85
2022-10-17T20:07:30.224Z,26.45
2022-10-17T20:10:00.379Z,28.00
2022-10-17T20:12:30.659Z,27.05
2022-10-17T20:15:01.049Z,26.85
2022-10-17T20:17:31.200Z,29.25
2022-10-17T20:20:03.619Z,26.00
2022-10-17T20:22:36.452Z,28.98
2022-10-17T20:25:06.911Z,22.90
2022-10-17T20:27:37.301Z,25.83
2022-10-17T20:30:08.415Z,29.70
2022-10-17T20:32:40.144Z,26.02
2022-10-17T20:35:10.660Z,27.67
2022-10-17T20:37:42.665Z,24.95
2022-10-17T20:43:08.347Z,24.52
2022-10-17T20:45:50.629Z,23.58
2022-10-17T20:48:21.303Z,24.15
2022-10-17T20:50:51.726Z,24.42
2022-10-17T20:53:36.505Z,28.15
2022-10-17T20:56:24.503Z,23.95
2022-10-17T20:59:02.148Z,25.30
2022-10-17T21:01:34.944Z,24.88
2022-10-17T21:06:55.379Z,24.70
2022-10-17T21:09:26.017Z,24.08
2022-10-17T21:11:57.097Z,28.23
2022-10-17T21:14:27.405Z,30.40
2022-10-17T21:17:01.057Z,30.25
2022-10-17T21:19:34.338Z,30.27
2022-10-17T21:22:04.502Z,24.45
2022-10-17T21:24:34.880Z,22.65
2022-10-17T21:27:10.373Z,24.92
2022-10-17T21:29:40.545Z,21.25
2022-10-17T21:32:25.145Z,38.33
2022-10-17T21:35:01.883Z,29.25
2022-10-17T21:37:31.930Z,26.15
2022-10-17T21:40:02.157Z,23.25
2022-10-17T21:42:32.592Z,24.45
2022-10-17T21:45:07.553Z,24.33
2022-10-17T21:48:11.186Z,28.27
2022-10-17T21:50:35.984Z,23.38
2022-10-17T21:53:06.241Z,25.83
2022-10-17T21:55:37.741Z,25.92
2022-10-17T21:58:07.898Z,28.85
2022-10-17T22:00:38.052Z,25.80
2022-10-17T22:03:09.746Z,23.00
2022-10-17T22:05:39.837Z,27.25
2022-10-17T22:08:09.971Z,27.35
2022-10-17T22:10:40.830Z,25.73
2022-10-17T22:13:11.301Z,28.40
2022-10-17T22:15:41.532Z,24.90
2022-10-17T22:18:12.380Z,26.35
2022-10-17T22:20:42.648Z,23.00
2022-10-17T22:23:12.698Z,22.08
2022-10-17T22:25:43.253Z,24.75
2022-10-17T22:28:13.323Z,26.10
2022-10-17T22:30:43.420Z,24.05
2022-10-17T22:33:13.716Z,29.08
2022-10-17T22:35:45.038Z,24.50
2022-10-17T22:38:15.679Z,23.85
2022-10-17T22:40:46.912Z,24.23
2022-10-17T22:43:17.139Z,25.85
2022-10-17T22:45:59.056Z,27.50
2022-10-17T22:48:30.080Z,23.10
2022-10-17T22:51:01.481Z,24.67
2022-10-17T22:53:31.724Z,28.50
2022-10-17T22:56:08.286Z,31.15
2022-10-17T22:58:38.735Z,30.50
2022-10-17T23:01:13.844Z,24.92
2022-10-17T23:03:44.685Z,25.98
2022-10-17T23:06:15.338Z,24.92
2022-10-17T23:08:45.781Z,27.00
2022-10-17T23:11:16.965Z,25.92
2022-10-17T23:13:47.083Z,28.77
2022-10-17T23:16:17.567Z,27.08
2022-10-17T23:18:47.723Z,27.85
2022-10-17T23:21:17.804Z,28.52
2022-10-17T23:23:48.215Z,25.10
2022-10-17T23:26:18.374Z,24.45
2022-10-17T23:28:48.648Z,26.00
2022-10-17T23:31:21.454Z,36.22
2022-10-17T23:33:51.570Z,26.15
2022-10-17T23:36:22.433Z,26.25
2022-10-17T23:38:55.031Z,25.35
2022-10-17T23:41:28.257Z,22.70
2022-10-17T23:43:58.709Z,26.17
2022-10-17T23:46:28.822Z,26.95
2022-10-17T23:48:58.975Z,23.33
2022-10-17T23:51:29.225Z,25.95
2022-10-17T23:53:59.549Z,25.55
2022-10-17T23:56:29.702Z,24.02
2022-10-17T23:58:59.887Z,23.00
